Time;durP1;ratioP1;P1;durP2;ratioP2;P2;SDS_P1;SDS_P2;PMS_P1;PMS_P2;Temp;Humidity;BMP_temperature;BMP_pressure;BME280_temperature;BME280_humidity;BME280_pressure;Samples;Min_cycle;Max_cycle;Signal;HPM_P1;HPM_P2
2023/01/02 00:00:59;;;;;;;4.83;3.03;;;13.60;88.20;;;16.20;62.39;101099.63;5036829;28;20186;-54
2023/01/02 00:03:26;;;;;;;6.63;3.60;;;13.60;88.50;;;16.16;62.37;101101.84;5033396;28;20190;-53
2023/01/02 00:05:53;;;;;;;5.10;3.63;;;13.60;88.60;;;16.17;62.07;101090.22;5033293;28;20190;-52
2023/01/02 00:08:20;;;;;;;5.80;3.20;;;13.50;88.40;;;16.19;62.25;101088.16;5032772;28;20546;-54
2023/01/02 00:10:47;;;;;;;3.97;2.80;;;13.60;88.40;;;16.22;61.96;101082.47;5033552;28;20195;-56
2023/01/02 00:13:18;;;;;;;5.43;3.23;;;13.60;88.40;;;16.26;62.00;101073.06;5033466;28;20480;-53
2023/01/02 00:15:45;;;;;;;5.03;3.30;;;13.50;88.30;;;16.33;61.83;101075.72;5033038;28;20199;-55
2023/01/02 00:18:14;;;;;;;4.33;3.30;;;13.60;88.50;;;16.35;61.89;101065.72;5032855;28;20194;-51
2023/01/02 00:20:41;;;;;;;6.30;3.00;;;13.60;88.50;;;16.31;61.81;101051.19;5034519;28;20215;-54
2023/01/02 00:23:09;;;;;;;7.07;3.93;;;13.60;88.40;;;16.31;61.69;101047.75;5036857;28;20194;-53
2023/01/02 00:25:36;;;;;;;4.30;2.73;;;13.60;88.40;;;16.26;62.03;101046.50;5037152;28;20225;-53
2023/01/02 00:28:03;;;;;;;4.40;3.23;;;13.60;88.40;;;16.24;62.13;101037.09;5036813;28;20225;-55
2023/01/02 00:30:30;;;;;;;3.60;2.60;;;13.60;88.40;;;16.22;61.87;101039.13;5036576;28;20225;-52
2023/01/02 00:33:05;;;;;;;6.60;3.43;;;13.60;88.40;;;16.19;62.02;101032.38;5036925;28;20202;-53
2023/01/02 00:35:36;;;;;;;4.20;2.73;;;13.60;88.40;;;16.19;62.06;101012.97;5033523;28;20199;-52
2023/01/02 00:38:03;;;;;;;3.67;2.93;;;13.60;88.40;;;16.19;62.21;101013.78;5016848;28;20680;-55
2023/01/02 00:40:30;;;;;;;3.87;3.00;;;13.60;88.40;;;16.22;61.97;101013.41;5017010;28;20211;-53
2023/01/02 00:42:57;;;;;;;5.07;2.83;;;13.50;88.10;;;16.26;61.83;101011.97;5016954;28;20199;-53
2023/01/02 00:45:24;;;;;;;2.97;2.67;;;13.60;88.30;;;16.29;61.80;101010.72;5017165;28;20302;-56
2023/01/02 00:47:51;;;;;;;4.53;3.07;;;13.60;88.30;;;16.27;61.93;101008.28;5018100;28;20258;-55
2023/01/02 00:50:18;;;;;;;5.23;2.90;;;13.60;88.30;;;16.23;62.10;101009.72;5018238;28;20625;-54
2023/01/02 00:52:46;;;;;;;4.43;3.07;;;13.60;88.30;;;16.21;61.86;100990.50;5019766;28;20198;-52
2023/01/02 00:55:13;;;;;;;5.67;3.13;;;13.60;88.10;;;16.20;61.88;100991.53;5018106;28;20660;-54
2023/01/02 00:57:40;;;;;;;4.03;3.13;;;13.60;88.10;;;16.19;61.89;100992.53;5031431;28;20205;-53
2023/01/02 01:00:08;;;;;;;4.23;3.30;;;13.60;88.00;;;16.19;61.96;100975.78;5039004;28;20214;-54
2023/01/02 01:02:35;;;;;;;3.57;2.40;;;13.50;87.80;;;16.23;61.62;100977.84;5039060;28;20253;-55
2023/01/02 01:05:03;;;;;;;5.33;3.03;;;13.60;87.90;;;16.31;61.47;100978.66;5038374;28;20206;-56
2023/01/02 01:07:30;;;;;;;5.93;3.13;;;13.60;88.00;;;16.33;61.43;100984.59;5037887;28;20190;-55
2023/01/02 01:09:58;;;;;;;3.53;2.90;;;13.60;88.00;;;16.36;61.08;100970.88;5027779;28;20211;-55
2023/01/02 01:12:25;;;;;;;6.43;3.47;;;13.60;87.80;;;16.35;61.56;100961.28;5034519;28;20191;-54
2023/01/02 01:14:52;;;;;;;5.73;3.33;;;13.60;87.80;;;16.34;61.57;100962.28;5039115;28;20678;-54
2023/01/02 01:17:19;;;;;;;4.40;3.30;;;13.70;87.80;;;16.32;61.37;100959.03;5038166;28;20187;-53
2023/01/02 01:19:46;;;;;;;6.40;3.57;;;13.70;87.80;;;16.34;61.00;100954.31;5038662;28;20691;-53
2023/01/02 01:22:13;;;;;;;3.70;3.00;;;13.70;87.70;;;16.31;61.45;100941.47;5037762;28;20190;-52
2023/01/02 01:24:40;;;;;;;5.33;3.30;;;13.60;87.70;;;16.26;61.45;100945.53;5037264;28;20257;-55
2023/01/02 01:27:08;;;;;;;4.00;2.97;;;13.60;87.60;;;16.26;61.83;100934.09;5037037;28;20266;-53
2023/01/02 01:29:35;;;;;;;4.53;3.30;;;13.60;87.80;;;16.25;61.59;100933.31;5036818;28;20272;-55
2023/01/02 01:32:02;;;;;;;6.03;3.57;;;13.60;87.80;;;16.25;61.85;100932.47;5037318;28;20190;-55
2023/01/02 01:34:29;;;;;;;5.23;3.63;;;13.60;87.80;;;16.27;61.56;100931.25;5037577;28;20265;-55
2023/01/02 01:36:56;;;;;;;5.77;3.53;;;13.60;87.80;;;16.22;61.49;100927.56;5038250;28;20197;-52
2023/01/02 01:39:22;;;;;;;5.37;2.97;;;13.60;87.90;;;16.24;61.80;100936.97;5036382;28;20217;-55
2023/01/02 01:41:49;;;;;;;5.70;3.40;;;13.60;88.00;;;16.24;61.54;100931.66;5034222;28;20278;-55
2023/01/02 01:44:46;;;;;;;4.20;3.10;;;13.60;88.00;;;16.23;61.64;100932.69;5035389;28;20198;-52
2023/01/02 01:47:26;;;;;;;4.03;3.37;;;13.60;88.10;;;16.20;61.92;100934.94;5035943;28;20285;-56
2023/01/02 01:49:59;;;;;;;6.63;3.40;;;13.60;88.30;;;16.17;62.19;100925.53;5034908;28;20709;-55
2023/01/02 01:52:36;;;;;;;5.37;3.37;;;13.60;88.20;;;16.20;61.99;100921.66;5035640;28;20671;-53
2023/01/02 01:55:11;;;;;;;7.67;4.13;;;13.60;88.30;;;16.13;62.44;100934.94;5035305;28;20175;-53
2023/01/02 01:57:45;;;;;;;3.83;3.10;;;13.60;88.60;;;16.15;62.54;100926.78;5035455;28;20190;-54
2023/01/02 02:00:15;;;;;;;5.63;3.40;;;13.60;88.50;;;16.14;62.34;100931.25;5027338;28;20230;-56
2023/01/02 02:02:47;;;;;;;6.90;3.80;;;13.60;88.70;;;16.07;62.63;100934.94;5035305;28;20281;-56
2023/01/02 02:05:20;;;;;;;5.87;4.17;;;13.60;89.00;;;16.00;62.92;100944.75;5035558;28;20232;-55
2023/01/02 02:08:00;;;;;;;4.97;3.47;;;13.60;89.10;;;16.01;62.97;100936.59;5035242;28;20202;-53
2023/01/02 02:10:27;;;;;;;5.17;3.73;;;13.60;89.20;;;16.07;62.93;100933.09;5034918;28;20846;-53
2023/01/02 02:12:54;;;;;;;4.90;2.97;;;13.60;89.10;;;16.12;62.46;100935.97;5035058;28;20205;-56
2023/01/02 02:15:37;;;;;;;5.57;3.40;;;13.60;88.90;;;16.15;62.77;100930.25;5034794;28;20578;-55
2023/01/02 02:18:22;;;;;;;5.57;3.43;;;13.60;89.20;;;16.10;62.67;100923.91;5034925;28;20582;-56
2023/01/02 02:20:56;;;;;;;7.07;3.97;;;13.60;89.30;;;16.15;62.86;100908.19;5034975;28;20607;-53
2023/01/02 02:24:01;;;;;;;7.73;4.00;;;13.60;89.20;;;16.12;62.70;100901.44;5034991;28;20206;-53
2023/01/02 02:26:55;;;;;;;3.97;3.43;;;13.70;89.30;;;16.16;62.93;100904.50;5034955;28;20180;-55
2023/01/02 02:30:02;;;;;;;5.90;3.83;;;13.70;89.30;;;16.12;63.36;100906.75;5034477;28;20229;-53
2023/01/02 02:33:07;;;;;;;5.33;3.80;;;13.70;89.40;;;16.11;63.15;100893.69;5033714;28;20190;-55
2023/01/02 02:35:52;;;;;;;6.57;3.77;;;13.70;89.40;;;16.16;62.84;100896.53;5025150;28;20233;-55
2023/01/02 02:38:38;;;;;;;9.07;3.63;;;13.70;89.40;;;16.16;63.28;100886.72;5014673;28;20278;-53
2023/01/02 02:41:23;;;;;;;8.23;3.57;;;13.80;89.60;;;16.20;63.36;100887.94;5014425;28;20198;-54
2023/01/02 02:44:05;;;;;;;6.80;3.87;;;13.80;89.50;;;16.21;63.57;100884.25;5013293;28;20196;-53
2023/01/02 02:46:46;;;;;;;10.20;4.10;;;13.80;89.60;;;16.26;63.22;100883.63;5014493;28;20201;-54
2023/01/02 02:49:23;;;;;;;4.93;4.17;;;13.80;89.60;;;16.36;63.34;100875.22;5025930;28;20702;-52
2023/01/02 02:51:57;;;;;;;9.23;4.47;;;13.90;89.50;;;16.43;62.96;100886.66;5035151;28;20209;-54
2023/01/02 02:54:34;;;;;;;8.50;3.93;;;14.00;89.60;;;16.56;62.65;100887.47;5036740;28;20185;-52
2023/01/02 02:57:05;;;;;;;5.70;3.43;;;14.00;89.30;;;16.74;62.41;100886.78;5035418;28;20369;-54
2023/01/02 02:59:35;;;;;;;4.50;3.40;;;14.10;89.30;;;16.82;62.25;100875.91;5034052;28;20206;-56
2023/01/02 03:02:04;;;;;;;7.70;4.50;;;14.10;89.20;;;16.90;61.92;100875.69;5033721;28;20570;-55
2023/01/02 03:04:32;;;;;;;6.27;3.50;;;14.20;89.90;;;17.04;61.80;100874.59;5034041;28;20671;-54
2023/01/02 03:07:15;;;;;;;8.13;3.60;;;14.30;89.10;;;17.13;61.30;100889.25;5028817;28;20198;-55
2023/01/02 03:09:59;;;;;;;7.37;3.77;;;14.30;89.10;;;17.20;61.38;100879.41;5033908;28;20230;-56
2023/01/02 03:12:40;;;;;;;7.80;3.67;;;14.40;88.90;;;17.18;61.26;100876.13;5034168;28;20189;-53
2023/01/02 03:15:19;;;;;;;12.93;4.00;;;14.50;88.60;;;17.19;61.48;100869.78;5035297;28;20182;-53
2023/01/02 03:18:03;;;;;;;6.83;4.63;;;14.60;88.50;;;17.26;61.27;100878.53;5035490;28;20225;-55
2023/01/02 03:20:37;;;;;;;12.60;4.30;;;14.70;88.40;;;17.24;61.34;100875.28;5039321;28;20286;-53
2023/01/02 03:23:10;;;;;;;6.17;3.97;;;14.70;88.30;;;17.28;61.32;100876.47;5023552;28;20199;-55
2023/01/02 03:25:39;;;;;;;7.93;4.13;;;14.70;88.10;;;17.27;61.70;100877.50;5016089;28;20209;-55
2023/01/02 03:28:09;;;;;;;7.20;3.97;;;14.80;88.00;;;17.33;61.27;100870.53;5014127;28;20230;-53
2023/01/02 03:30:39;;;;;;;7.93;3.93;;;14.80;87.80;;;17.37;61.28;100853.91;5012726;28;20298;-52
2023/01/02 03:33:14;;;;;;;7.20;3.60;;;14.80;87.60;;;17.40;60.96;100856.13;5013677;28;20187;-53
2023/01/02 03:35:45;;;;;;;6.30;3.87;;;14.90;87.70;;;17.43;61.20;100858.34;5013963;28;20179;-54
2023/01/02 03:38:21;;;;;;;9.60;4.07;;;14.90;87.60;;;17.43;60.97;100863.69;5014197;28;20214;-52
2023/01/02 03:40:57;;;;;;;8.77;4.00;;;14.90;87.50;;;17.45;60.88;100861.63;5034313;28;20197;-54
2023/01/02 03:43:29;;;;;;;8.97;4.47;;;14.90;87.50;;;17.47;61.07;100859.53;5037368;28;20655;-55
2023/01/02 03:46:07;;;;;;;5.63;3.57;;;15.00;87.60;;;17.48;60.93;100868.34;5034317;28;20198;-56
2023/01/02 03:48:44;;;;;;;8.27;4.27;;;15.00;87.60;;;17.48;61.04;100861.19;5033112;28;20201;-56
2023/01/02 03:51:11;;;;;;;6.50;3.37;;;15.00;87.60;;;17.48;61.10;100855.88;5033482;28;20598;-54
2023/01/02 03:53:39;;;;;;;6.23;3.80;;;14.90;87.30;;;17.52;60.75;100862.41;5033501;28;20218;-55
2023/01/02 03:56:20;;;;;;;5.40;3.83;;;14.90;87.30;;;17.46;61.13;100863.25;5020981;28;20277;-56
2023/01/02 03:58:55;;;;;;;6.37;3.93;;;15.00;87.40;;;17.48;60.65;100863.84;5017515;28;20217;-55
2023/01/02 04:01:35;;;;;;;7.63;3.70;;;15.00;87.30;;;17.45;60.92;100861.63;5017343;28;20213;-55
2023/01/02 04:04:15;;;;;;;7.17;4.20;;;15.00;87.30;;;17.43;61.18;100858.34;5017656;28;20205;-53
2023/01/02 04:06:48;;;;;;;10.43;4.00;;;15.00;87.30;;;17.44;61.16;100860.00;5017649;28;20278;-53
2023/01/02 04:09:20;;;;;;;6.93;3.63;;;15.00;87.30;;;17.44;61.17;100867.97;5018788;28;20207;-51
2023/01/02 04:11:54;;;;;;;7.03;4.30;;;15.00;87.40;;;17.39;61.54;100867.81;5026900;28;20207;-55
2023/01/02 04:14:29;;;;;;;6.37;3.63;;;15.00;87.50;;;17.28;61.73;100868.47;5017781;28;20229;-52
2023/01/02 04:17:00;;;;;;;9.03;4.47;;;14.90;87.60;;;17.17;62.13;100863.84;5017123;28;20175;-53
2023/01/02 04:19:37;;;;;;;6.20;4.13;;;14.90;87.70;;;17.10;62.47;100868.41;5016722;28;20219;-52
2023/01/02 04:22:13;;;;;;;5.80;4.00;;;14.90;88.10;;;17.15;62.62;100865.09;5019764;28;20195;-53
2023/01/02 04:24:49;;;;;;;8.47;4.40;;;14.90;88.30;;;17.08;62.69;100865.16;5021499;28;20928;-55
2023/01/02 04:27:23;;;;;;;6.47;4.03;;;14.90;88.60;;;17.08;62.84;100859.81;5019621;28;20237;-56
2023/01/02 04:29:50;;;;;;;6.70;3.80;;;14.80;88.70;;;17.11;63.14;100864.72;5018194;28;20246;-52
2023/01/02 04:32:24;;;;;;;6.90;4.57;;;14.80;88.70;;;17.13;62.91;100867.16;5020901;28;20191;-53
2023/01/02 04:34:55;;;;;;;6.80;4.30;;;14.80;88.90;;;17.06;63.26;100869.88;5020576;28;20652;-52
2023/01/02 04:37:28;;;;;;;9.67;4.40;;;14.80;89.20;;;17.03;63.07;100870.28;5021284;28;20648;-53
2023/01/02 04:40:01;;;;;;;9.53;4.37;;;14.80;89.20;;;16.98;63.44;100875.44;5018324;28;20752;-55
2023/01/02 04:42:28;;;;;;;6.00;3.63;;;14.70;89.50;;;16.96;63.90;100872.16;5018175;28;20182;-53
2023/01/02 04:44:55;;;;;;;7.20;3.70;;;14.70;89.60;;;16.93;63.89;100867.25;5018096;28;20199;-55
2023/01/02 04:47:22;;;;;;;6.87;4.57;;;14.70;89.90;;;16.86;64.65;100877.13;5019333;28;20195;-55
2023/01/02 04:49:48;;;;;;;9.57;4.33;;;14.60;90.20;;;16.77;65.11;100878.41;5018495;28;20215;-56
2023/01/02 04:52:17;;;;;;;14.13;4.70;;;14.60;90.40;;;16.72;65.17;100873.72;5020419;28;20195;-55
2023/01/02 04:54:44;;;;;;;7.87;4.00;;;14.50;90.50;;;16.65;65.59;100874.75;5020169;28;20238;-55
2023/01/02 04:57:11;;;;;;;6.00;3.83;;;14.50;90.80;;;16.71;65.68;100863.31;5018583;28;20253;-53
2023/01/02 04:59:37;;;;;;;7.60;4.60;;;14.50;90.80;;;16.71;65.81;100863.31;5025870;28;20214;-55
2023/01/02 05:02:04;;;;;;;6.97;4.23;;;14.50;91.20;;;16.75;65.73;100864.50;5039256;28;20187;-55
2023/01/02 05:04:32;;;;;;;8.60;4.57;;;14.50;91.10;;;16.77;65.78;100862.44;5040940;28;20273;-55
2023/01/02 05:06:58;;;;;;;10.33;4.40;;;14.40;91.30;;;16.83;65.57;100866.91;5038510;28;20594;-54
2023/01/02 05:09:27;;;;;;;6.93;4.30;;;14.40;91.20;;;16.89;65.55;100866.06;5041327;28;20210;-55
2023/01/02 05:11:54;;;;;;;7.63;3.87;;;14.50;91.30;;;16.95;65.23;100859.88;5038893;28;20214;-55
2023/01/02 05:14:21;;;;;;;7.53;3.83;;;14.40;91.40;;;17.01;64.91;100859.06;5033560;28;20213;-56
2023/01/02 05:16:48;;;;;;;5.50;4.30;;;14.50;91.40;;;17.05;65.11;100860.25;5019340;28;20191;-55
2023/01/02 05:19:15;;;;;;;7.43;3.97;;;14.40;91.30;;;17.09;64.77;100861.44;5018467;28;20632;-55
2023/01/02 05:24:28;;;;;;;7.10;3.97;;;14.50;91.40;;;17.10;64.84;100867.59;5016663;28;20482;-55
2023/01/02 05:26:55;;;;;;;9.87;4.63;;;14.50;91.40;;;16.98;66.10;100864.78;5017681;28;20187;-56
2023/01/02 05:29:22;;;;;;;9.33;4.60;;;14.50;91.70;;;16.95;66.18;100859.09;5016254;28;20298;-55
2023/01/02 05:31:49;;;;;;;9.07;5.07;;;14.60;91.60;;;16.88;66.53;100851.94;5016869;28;20215;-55
2023/01/02 05:34:16;;;;;;;9.87;4.63;;;14.50;91.70;;;16.85;66.68;100859.56;5016639;28;20556;-55
2023/01/02 05:36:43;;;;;;;6.33;4.70;;;14.50;91.80;;;16.86;66.89;100858.50;5017092;28;20199;-55
2023/01/02 05:39:12;;;;;;;6.87;4.20;;;14.50;91.80;;;16.82;66.67;100854.66;5031152;28;20293;-55
2023/01/02 05:41:41;;;;;;;7.13;4.23;;;14.50;91.90;;;16.81;66.75;100861.81;5036146;28;20179;-55
2023/01/02 05:44:09;;;;;;;6.47;4.30;;;14.50;91.80;;;16.85;67.02;100864.88;5019033;28;20198;-56
2023/01/02 05:46:38;;;;;;;7.00;4.47;;;14.50;91.90;;;16.86;66.82;100866.47;5016826;28;20282;-56
2023/01/02 05:49:05;;;;;;;8.73;4.70;;;14.60;91.90;;;16.91;66.59;100864.00;5028706;28;20234;-55
2023/01/02 05:51:33;;;;;;;9.70;4.70;;;14.50;91.90;;;16.97;66.43;100873.81;5040634;28;20214;-54
2023/01/02 05:54:01;;;;;;;8.93;5.23;;;14.60;91.80;;;16.99;66.42;100873.59;5044944;28;20254;-56
2023/01/02 05:56:30;;;;;;;6.93;4.70;;;14.60;91.90;;;17.05;66.36;100876.19;5038449;28;20271;-52
2023/01/02 05:59:01;;;;;;;9.20;4.70;;;14.60;91.80;;;17.05;66.17;100878.03;5038895;28;20566;-54
2023/01/02 06:01:29;;;;;;;5.97;4.17;;;14.60;91.80;;;17.05;66.32;100868.22;5037404;28;20236;-52
2023/01/02 06:03:58;;;;;;;7.67;4.10;;;14.60;91.70;;;17.02;66.32;100865.97;5035172;28;20655;-55
2023/01/02 06:06:31;;;;;;;7.43;4.43;;;14.60;91.70;;;17.04;66.22;100868.44;5034497;28;20210;-52
2023/01/02 06:08:58;;;;;;;8.37;4.40;;;14.60;91.60;;;17.08;65.79;100870.47;5035186;28;20206;-54
2023/01/02 06:11:26;;;;;;;6.50;4.60;;;14.70;91.70;;;17.04;65.94;100858.63;5036796;28;20211;-54
2023/01/02 06:13:54;;;;;;;10.30;5.00;;;14.70;91.60;;;16.94;66.11;100855.63;5037243;28;20209;-56
2023/01/02 06:16:23;;;;;;;7.77;4.17;;;14.60;91.50;;;16.93;66.09;100848.66;5036831;28;20194;-56
2023/01/02 06:18:51;;;;;;;9.40;4.43;;;14.60;91.50;;;16.90;66.11;100846.44;5036025;28;20249;-55
2023/01/02 06:21:21;;;;;;;6.30;4.20;;;14.70;91.40;;;16.99;66.20;100855.78;5036455;28;20241;-54
2023/01/02 06:23:53;;;;;;;8.07;5.20;;;14.70;91.40;;;17.03;65.66;100850.84;5034753;28;20199;-54
2023/01/02 06:26:21;;;;;;;8.67;4.47;;;14.70;91.40;;;17.07;65.49;100852.88;5019652;28;20191;-53
2023/01/02 06:28:51;;;;;;;8.43;4.73;;;14.70;91.30;;;17.14;65.44;100858.97;5018513;28;20652;-53
2023/01/02 06:31:22;;;;;;;8.63;4.93;;;14.70;91.20;;;17.13;65.08;100861.84;5017414;28;20718;-55
2023/01/02 06:33:53;;;;;;;6.07;4.63;;;14.70;91.10;;;17.16;65.02;100856.09;5020312;28;20172;-55
2023/01/02 06:36:20;;;;;;;9.80;4.90;;;14.80;91.10;;;17.12;65.16;100860.19;5035861;28;20579;-53
2023/01/02 06:38:48;;;;;;;7.83;4.80;;;14.80;91.00;;;17.20;64.94;100855.47;5034441;28;20233;-53
2023/01/02 06:41:16;;;;;;;9.10;5.90;;;14.80;90.90;;;17.26;64.39;100859.91;5033972;28;20190;-52
2023/01/02 06:43:45;;;;;;;8.20;4.90;;;14.80;90.90;;;17.28;64.36;100868.47;5034772;28;20191;-54
2023/01/02 06:46:14;;;;;;;7.10;4.23;;;14.90;90.80;;;17.17;64.44;100869.19;5033822;28;20567;-52
2023/01/02 06:48:43;;;;;;;6.40;4.60;;;14.80;90.70;;;17.32;64.55;100869.69;5033630;28;20222;-55
2023/01/02 06:51:13;;;;;;;7.00;5.57;;;14.90;90.70;;;17.37;64.09;100869.06;5033900;28;20215;-54
2023/01/02 06:53:42;;;;;;;6.53;4.20;;;14.90;90.60;;;17.41;63.72;100860.41;5026030;28;20218;-53
2023/01/02 06:56:11;;;;;;;6.37;4.27;;;14.90;90.50;;;17.39;63.56;100867.00;5014241;28;20202;-53
2023/01/02 06:58:39;;;;;;;6.60;4.47;;;14.90;90.40;;;17.42;63.43;100862.03;5014268;28;20286;-54
2023/01/02 07:01:09;;;;;;;7.50;4.57;;;15.00;90.30;;;17.43;63.67;100862.84;5032123;28;20187;-53
2023/01/02 07:03:36;;;;;;;7.67;4.73;;;15.00;90.20;;;17.52;63.31;100851.75;5034022;28;20206;-53
2023/01/02 07:06:07;;;;;;;7.50;4.43;;;15.00;90.10;;;17.58;62.91;100860.72;5034911;28;20200;-52
2023/01/02 07:08:35;;;;;;;6.17;3.93;;;15.10;90.10;;;17.56;62.98;100858.31;5034663;28;20202;-54
2023/01/02 07:11:11;;;;;;;6.83;4.37;;;15.10;90.00;;;17.52;62.99;100857.09;5035420;28;20214;-53
2023/01/02 07:13:40;;;;;;;7.27;4.30;;;15.10;90.00;;;17.58;62.92;100856.22;5033751;28;20634;-53
2023/01/02 07:16:11;;;;;;;6.43;4.13;;;15.10;90.20;;;17.57;62.96;100867.91;5034008;28;20190;-52
2023/01/02 07:18:39;;;;;;;9.27;4.57;;;15.10;89.80;;;17.44;63.01;100864.50;5033556;28;20548;-54
2023/01/02 07:21:09;;;;;;;4.60;3.33;;;15.10;89.70;;;17.42;63.21;100856.72;5033291;28;20249;-51
2023/01/02 07:23:37;;;;;;;8.33;4.40;;;15.10;89.50;;;17.44;63.12;100860.00;5013680;28;20182;-54
2023/01/02 07:26:06;;;;;;;5.43;4.07;;;15.10;89.40;;;17.41;62.98;100865.75;5013415;28;20199;-57
2023/01/02 07:28:34;;;;;;;7.43;4.00;;;15.10;90.00;;;17.45;63.02;100847.47;5013771;28;20191;-55
2023/01/02 07:31:05;;;;;;;8.03;4.30;;;15.20;89.30;;;17.38;63.09;100850.19;5021987;28;20361;-54
2023/01/02 07:33:33;;;;;;;8.20;4.20;;;15.20;89.20;;;17.41;63.10;100868.41;5033656;28;20710;-55
2023/01/02 07:36:03;;;;;;;4.57;3.80;;;15.20;89.10;;;17.49;62.71;100868.16;5026783;28;20191;-55
2023/01/02 07:38:33;;;;;;;6.90;3.80;;;15.20;89.00;;;17.59;62.29;100865.81;5013530;28;20202;-56
2023/01/02 07:41:00;;;;;;;7.57;4.20;;;15.20;89.00;;;17.63;62.27;100868.88;5013509;28;20188;-54
2023/01/02 07:43:27;;;;;;;6.67;4.63;;;15.20;88.90;;;17.68;62.24;100876.22;5013727;28;20655;-54
2023/01/02 07:46:00;;;;;;;6.90;4.33;;;15.20;88.80;;;17.73;61.93;100879.03;5013997;28;20201;-55
2023/01/02 07:48:28;;;;;;;5.77;4.60;;;15.20;88.70;;;17.77;61.65;100890.88;5013475;28;20203;-54
2023/01/02 07:50:59;;;;;;;8.60;4.37;;;15.20;88.50;;;17.66;61.77;100889.75;5020597;28;20203;-55
2023/01/02 07:53:26;;;;;;;6.00;3.90;;;15.20;88.50;;;17.71;61.75;100887.22;5013361;28;20183;-53
2023/01/02 07:55:56;;;;;;;6.60;4.47;;;15.30;88.50;;;17.68;61.75;100897.53;5012934;28;20208;-55
2023/01/02 07:58:23;;;;;;;8.70;4.63;;;15.20;88.40;;;17.67;61.73;100896.69;5012256;28;20606;-53
2023/01/02 08:00:50;;;;;;;6.13;4.63;;;15.30;88.30;;;17.68;61.71;100902.84;5012941;28;20210;-52
2023/01/02 08:03:17;;;;;;;7.00;5.30;;;15.30;88.30;;;17.74;61.65;100901.97;5013334;28;20195;-55
2023/01/02 08:05:44;;;;;;;5.97;4.53;;;15.30;88.20;;;17.77;61.30;100902.34;5012749;28;20514;-54
2023/01/02 08:08:11;;;;;;;6.30;4.00;;;15.30;88.00;;;17.86;61.12;100906.38;5022421;28;20289;-53
2023/01/02 08:10:39;;;;;;;8.30;4.23;;;15.30;88.00;;;17.86;61.02;100910.88;5032772;28;20716;-55
2023/01/02 08:13:07;;;;;;;5.83;4.20;;;15.30;87.80;;;17.86;60.93;100914.38;5032247;28;20210;-53
2023/01/02 08:15:34;;;;;;;6.90;4.87;;;15.40;87.70;;;17.92;60.95;100912.69;5028779;28;20199;-56
2023/01/02 08:18:01;;;;;;;8.90;4.83;;;15.40;87.70;;;17.90;60.65;100928.06;5013000;28;20191;-53
2023/01/02 08:20:28;;;;;;;7.30;4.60;;;15.40;87.50;;;17.94;60.69;100915.94;5013287;28;20215;-53
2023/01/02 08:22:56;;;;;;;7.10;5.03;;;15.40;87.30;;;17.96;60.23;100919.19;5013347;28;20191;-53
2023/01/02 08:25:23;;;;;;;5.63;3.77;;;15.40;87.10;;;17.97;60.34;100928.84;5013166;28;20214;-55
2023/01/02 08:27:50;;;;;;;4.70;4.27;;;15.40;87.00;;;18.01;60.14;100924.69;5026730;28;20558;-54
2023/01/02 08:30:18;;;;;;;9.07;4.60;;;15.40;86.80;;;17.96;60.23;100927.19;5024061;28;20218;-52
2023/01/02 08:32:45;;;;;;;7.20;4.10;;;15.40;86.80;;;18.00;60.18;100933.69;5012942;28;20579;-52
2023/01/02 08:35:12;;;;;;;5.20;3.70;;;15.50;86.70;;;18.08;59.94;100936.09;5012918;28;20270;-52
2023/01/02 08:37:39;;;;;;;5.97;3.93;;;15.50;86.70;;;18.10;59.81;100926.03;5012568;28;20241;-54
2023/01/02 08:40:11;;;;;;;7.03;4.37;;;15.50;86.60;;;18.08;59.93;100936.09;5012792;28;20250;-55
2023/01/02 08:42:41;;;;;;;7.93;4.23;;;15.50;86.50;;;18.01;59.87;100940.69;5015864;28;20195;-53
2023/01/02 08:45:09;;;;;;;6.50;4.20;;;15.50;86.50;;;17.99;59.96;100943.56;5029323;28;20202;-54
2023/01/02 08:47:37;;;;;;;7.07;4.03;;;15.50;86.40;;;18.03;59.81;100949.25;5035676;28;20190;-56
2023/01/02 08:50:05;;;;;;;7.13;4.07;;;15.50;86.30;;;18.11;59.81;100941.78;5035425;28;20232;-55
2023/01/02 08:52:31;;;;;;;4.73;3.50;;;15.60;86.40;;;18.05;59.83;100947.19;5035801;28;20574;-56
2023/01/02 08:55:02;;;;;;;6.00;4.37;;;15.50;86.20;;;18.02;59.69;100951.09;5035769;28;20183;-56
2023/01/02 08:57:29;;;;;;;6.23;3.67;;;15.50;86.10;;;18.04;59.53;100956.22;5035979;28;20508;-56
2023/01/02 08:59:56;;;;;;;10.17;4.07;;;15.50;86.00;;;18.12;59.78;100947.94;5016616;28;20222;-55
2023/01/02 09:02:23;;;;;;;5.87;4.23;;;15.60;86.10;;;18.20;59.36;100961.00;5016217;28;20652;-54
2023/01/02 09:04:52;;;;;;;6.47;4.10;;;15.50;86.10;;;18.07;59.61;100955.78;5015329;28;20191;-57
2023/01/02 09:07:18;;;;;;;6.03;3.83;;;15.50;86.10;;;18.09;59.57;100959.06;5020604;28;20584;-55
2023/01/02 09:09:45;;;;;;;4.60;3.67;;;15.50;86.00;;;18.09;59.59;100964.38;5035349;28;20222;-55
2023/01/02 09:12:12;;;;;;;5.20;3.70;;;15.60;85.90;;;18.12;59.67;100958.59;5032580;28;20217;-53
2023/01/02 09:14:40;;;;;;;6.57;4.53;;;15.60;85.80;;;18.14;59.56;100975.19;5015860;28;20195;-54
2023/01/02 09:17:07;;;;;;;5.77;3.80;;;15.60;85.70;;;18.21;59.14;100978.59;5015745;28;20195;-54
2023/01/02 09:19:34;;;;;;;7.10;3.83;;;15.70;85.60;;;18.30;58.86;100979.97;5015105;28;20703;-53
2023/01/02 09:22:03;;;;;;;5.37;3.13;;;15.70;85.50;;;18.39;58.89;100978.66;5015413;28;20193;-56
2023/01/02 09:24:30;;;;;;;5.47;3.60;;;15.70;86.20;;;18.38;58.42;100990.34;5033072;28;20206;-53
2023/01/02 09:26:58;;;;;;;7.00;3.97;;;15.70;84.90;;;18.24;58.49;100986.16;5027436;28;20203;-55
2023/01/02 09:29:25;;;;;;;7.67;4.07;;;15.70;84.60;;;18.28;58.43;101003.34;5015291;28;20211;-56
2023/01/02 09:31:52;;;;;;;5.33;3.83;;;15.70;84.40;;;18.35;58.35;100993.44;5015174;28;20210;-54
2023/01/02 09:34:19;;;;;;;5.73;3.70;;;15.80;84.60;;;18.45;57.97;101001.75;5015426;28;20222;-54
2023/01/02 09:36:46;;;;;;;6.33;3.97;;;15.80;84.70;;;18.46;58.09;101005.28;5015766;28;20230;-53
2023/01/02 09:39:14;;;;;;;4.73;3.53;;;15.80;84.60;;;18.50;57.93;101014.47;5014961;28;20229;-55
2023/01/02 09:41:47;;;;;;;5.47;3.50;;;15.80;84.60;;;18.46;57.97;101008.78;5027599;28;20313;-55
2023/01/02 09:44:21;;;;;;;3.83;3.33;;;15.80;84.40;;;18.46;57.79;101011.44;5035156;28;20190;-53
2023/01/02 09:46:53;;;;;;;4.80;3.40;;;15.80;84.40;;;18.34;58.21;101004.34;5035387;28;20186;-53
2023/01/02 09:49:24;;;;;;;7.27;3.57;;;15.80;84.30;;;18.37;58.12;101015.38;5035875;28;20229;-56
2023/01/02 09:51:51;;;;;;;6.10;3.10;;;15.80;84.30;;;18.43;58.15;101014.50;5036519;28;20218;-53
2023/01/02 09:54:27;;;;;;;8.87;3.20;;;15.80;84.40;;;18.48;58.14;101016.53;5035590;28;20186;-54
2023/01/02 09:57:15;;;;;;;9.53;4.37;;;15.80;84.60;;;18.49;58.18;101027.00;5036829;28;20237;-55
2023/01/02 09:59:51;;;;;;;5.13;2.57;;;15.80;84.80;;;18.51;58.00;101024.94;5034975;28;20223;-55
2023/01/02 10:02:52;;;;;;;4.80;3.07;;;15.80;84.90;;;18.38;58.47;101043.66;5034623;28;20201;-56
2023/01/02 10:06:01;;;;;;;7.50;3.33;;;15.80;85.40;;;18.31;58.70;101042.91;5034473;28;20226;-55
2023/01/02 10:08:42;;;;;;;6.40;2.77;;;15.80;85.70;;;18.31;58.89;101053.56;5034326;28;20194;-52
2023/01/02 10:11:29;;;;;;;4.77;3.13;;;15.70;85.60;;;18.25;58.90;101060.59;5035970;28;20207;-53
2023/01/02 10:14:01;;;;;;;4.70;2.50;;;15.70;85.40;;;18.31;58.55;101079.38;5024895;28;20713;-52
2023/01/02 10:16:51;;;;;;;2.53;2.20;;;15.70;85.30;;;18.28;58.37;101064.66;5015055;28;20223;-56
2023/01/02 10:19:26;;;;;;;3.70;2.20;;;15.60;85.00;;;18.22;58.19;101086.84;5020381;28;20236;-53
2023/01/02 10:21:59;;;;;;;2.73;1.90;;;15.60;84.60;;;18.25;58.02;101086.41;5035544;28;20210;-53
2023/01/02 10:24:40;;;;;;;3.07;1.97;;;15.60;84.30;;;18.14;57.66;101084.44;5035317;28;20531;-53
2023/01/02 10:27:16;;;;;;;2.97;1.90;;;15.50;83.80;;;18.11;57.87;101088.34;5037072;28;20217;-54
2023/01/02 10:30:00;;;;;;;2.77;1.70;;;15.50;83.80;;;18.11;57.86;101112.31;5035890;28;20237;-55
2023/01/02 10:32:30;;;;;;;1.60;1.40;;;15.50;83.80;;;18.10;57.05;101126.69;5034892;28;20206;-55